EZY533 LFLL-EGGP
Flight info
| Callsign | EZY533 |
|---|---|
| Flight time | N/A |
| Altitude | 38000 |
| Route | BUSIL8S BUSIL DCT AMORO DCT MOMIL DCT BAGBI DCT SIZZA DCT LAULY DCT BRY DCT CLM DCT KOPOR DCT VESAN DCT RATUK DCT SOVAT L613 SANDY UN57 WELIN T420 ELVOS ELVOS1L |
| Aircraft | A319/M-SDE3FGHIRWY/LB1 |
Departure
| Time | 2026-05-04 20:35 |
|---|---|
| Airport | Lyon Saint-Exupéry Airport (LFLL) |
Arrival
| Time | N/A |
|---|---|
| Airport | Liverpool John Lennon Airport (EGGP) |
| Time | Latitude | Longitude | Altitude | Speed | Heading |
|---|---|---|---|---|---|
| 2026-05-04 20:05 | 45.71599 | 5.08213 | 799 ft | 0 kts | 170° |
| 2026-05-04 20:17 | 45.71592 | 5.08220 | 798 ft | 3 kts | 140° |
| 2026-05-04 20:17 | 45.71595 | 5.08213 | 798 ft | 3 kts | 147° |
| 2026-05-04 20:18 | 45.71585 | 5.08201 | 798 ft | 0 kts | 14° |
| 2026-05-04 20:18 | 45.71580 | 5.08199 | 799 ft | 0 kts | 14° |
| 2026-05-04 20:20 | 45.71582 | 5.08200 | 799 ft | 1 kts | 14° |
| 2026-05-04 20:20 | 45.71586 | 5.08201 | 798 ft | 0 kts | 13° |
| 2026-05-04 20:22 | 45.71580 | 5.08200 | 799 ft | 2 kts | 11° |
| 2026-05-04 20:22 | 45.71586 | 5.08199 | 799 ft | 0 kts | 2° |
| 2026-05-04 20:22 | 45.71585 | 5.08198 | 799 ft | 0 kts | 356° |
| 2026-05-04 20:23 | 45.71586 | 5.08198 | 798 ft | 0 kts | 356° |
| 2026-05-04 20:24 | 45.71583 | 5.08199 | 798 ft | 0 kts | 6° |
| 2026-05-04 20:24 | 45.71581 | 5.08199 | 799 ft | 0 kts | 19° |
| 2026-05-04 20:24 | 45.71586 | 5.08200 | 798 ft | 0 kts | 5° |
| 2026-05-04 20:24 | 45.71599 | 5.08213 | 800 ft | 5 kts | 170° |
| 2026-05-04 20:29 | 45.71598 | 5.08217 | 798 ft | 1 kts | 141° |
| 2026-05-04 20:29 | 45.71604 | 5.08224 | 798 ft | 2 kts | 44° |
| 2026-05-04 20:30 | 45.71666 | 5.08235 | 798 ft | 13 kts | 31° |
| 2026-05-04 20:30 | 45.71677 | 5.08343 | 798 ft | 12 kts | 84° |
| 2026-05-04 20:30 | 45.71694 | 5.08464 | 798 ft | 13 kts | 56° |
| 2026-05-04 20:30 | 45.71784 | 5.08479 | 797 ft | 14 kts | 354° |
| 2026-05-04 20:31 | 45.71889 | 5.08466 | 795 ft | 16 kts | 355° |
| 2026-05-04 20:31 | 45.72003 | 5.08452 | 794 ft | 17 kts | 355° |
| 2026-05-04 20:31 | 45.72126 | 5.08438 | 792 ft | 19 kts | 355° |
| 2026-05-04 20:31 | 45.72260 | 5.08421 | 791 ft | 20 kts | 354° |
| 2026-05-04 20:32 | 45.72402 | 5.08405 | 789 ft | 21 kts | 356° |
| 2026-05-04 20:32 | 45.72553 | 5.08386 | 787 ft | 22 kts | 355° |
| 2026-05-04 20:32 | 45.72710 | 5.08367 | 785 ft | 24 kts | 355° |
| 2026-05-04 20:32 | 45.72877 | 5.08348 | 783 ft | 25 kts | 355° |
| 2026-05-04 20:33 | 45.73052 | 5.08326 | 781 ft | 26 kts | 355° |
| 2026-05-04 20:33 | 45.73235 | 5.08303 | 779 ft | 27 kts | 355° |
| 2026-05-04 20:33 | 45.73427 | 5.08281 | 777 ft | 28 kts | 355° |
| 2026-05-04 20:33 | 45.73623 | 5.08256 | 775 ft | 29 kts | 355° |
| 2026-05-04 20:34 | 45.73722 | 5.08421 | 775 ft | 26 kts | 102° |
| 2026-05-04 20:34 | 45.73718 | 5.08647 | 774 ft | 20 kts | 56° |
| 2026-05-04 20:34 | 45.73698 | 5.08712 | 774 ft | 4 kts | 176° |
| 2026-05-04 20:34 | 45.73536 | 5.08731 | 778 ft | 60 kts | 175° |
| 2026-05-04 20:35 | 45.72878 | 5.08812 | 788 ft | 128 kts | 175° |
| 2026-05-04 20:35 | 45.71847 | 5.08944 | 1059 ft | 154 kts | 175° |
| 2026-05-04 20:35 | 45.70792 | 5.09078 | 1826 ft | 149 kts | 175° |
| 2026-05-04 20:35 | 45.69766 | 5.09179 | 2468 ft | 155 kts | 182° |
| 2026-05-04 20:36 | 45.68655 | 5.08955 | 2926 ft | 170 kts | 191° |
| 2026-05-04 20:36 | 45.67381 | 5.08549 | 3010 ft | 211 kts | 193° |
| 2026-05-04 20:36 | 45.65842 | 5.08039 | 3279 ft | 235 kts | 192° |
| 2026-05-04 20:36 | 45.64211 | 5.07483 | 3885 ft | 245 kts | 193° |
| 2026-05-04 20:37 | 45.62551 | 5.06909 | 4498 ft | 245 kts | 191° |
| 2026-05-04 20:37 | 45.60854 | 5.06940 | 4919 ft | 248 kts | 166° |
| 2026-05-04 20:37 | 45.59367 | 5.08160 | 5001 ft | 253 kts | 136° |
| 2026-05-04 20:37 | 45.58488 | 5.10275 | 5016 ft | 262 kts | 108° |
| 2026-05-04 20:38 | 45.58427 | 5.12881 | 5017 ft | 269 kts | 80° |
| 2026-05-04 20:38 | 45.58899 | 5.15482 | 5020 ft | 270 kts | 79° |
| 2026-05-04 20:38 | 45.59293 | 5.18102 | 5024 ft | 270 kts | 81° |
| 2026-05-04 20:38 | 45.59674 | 5.20688 | 5344 ft | 267 kts | 81° |
| 2026-05-04 20:39 | 45.60067 | 5.23320 | 5979 ft | 274 kts | 81° |
| 2026-05-04 20:39 | 45.60522 | 5.25987 | 6608 ft | 282 kts | 73° |
| 2026-05-04 20:39 | 45.61577 | 5.28408 | 6911 ft | 293 kts | 47° |
| 2026-05-04 20:39 | 45.63280 | 5.29990 | 6980 ft | 296 kts | 20° |
| 2026-05-04 20:40 | 45.65293 | 5.30503 | 7144 ft | 292 kts | 4° |
| 2026-05-04 20:40 | 45.67339 | 5.30728 | 7766 ft | 296 kts | 2° |
| 2026-05-04 20:40 | 45.69385 | 5.30520 | 8391 ft | 297 kts | 341° |
| 2026-05-04 20:40 | 45.71194 | 5.29140 | 8852 ft | 295 kts | 318° |
| 2026-05-04 20:41 | 45.72719 | 5.27196 | 8958 ft | 293 kts | 313° |
| 2026-05-04 20:41 | 45.74200 | 5.25190 | 8973 ft | 293 kts | 313° |
| 2026-05-04 20:41 | 45.75714 | 5.23244 | 8974 ft | 294 kts | 319° |
| 2026-05-04 20:41 | 45.77308 | 5.21501 | 9392 ft | 292 kts | 320° |
| 2026-05-04 20:42 | 45.78961 | 5.19758 | 10032 ft | 297 kts | 321° |
| 2026-05-04 20:42 | 45.80665 | 5.17977 | 10643 ft | 311 kts | 321° |
| 2026-05-04 20:42 | 45.82452 | 5.16110 | 11264 ft | 323 kts | 321° |
| 2026-05-04 20:42 | 45.84308 | 5.14163 | 11798 ft | 338 kts | 321° |
| 2026-05-04 20:43 | 45.86200 | 5.12175 | 11964 ft | 344 kts | 321° |
| 2026-05-04 20:43 | 45.88135 | 5.10141 | 11978 ft | 346 kts | 321° |
| 2026-05-04 20:43 | 45.90084 | 5.08090 | 11978 ft | 346 kts | 321° |
| 2026-05-04 20:43 | 45.92021 | 5.06043 | 12148 ft | 344 kts | 321° |
| 2026-05-04 20:44 | 45.94015 | 5.04066 | 12664 ft | 350 kts | 324° |
| 2026-05-04 20:44 | 45.96075 | 5.02174 | 13188 ft | 354 kts | 326° |
| 2026-05-04 20:44 | 45.98182 | 5.00312 | 13763 ft | 358 kts | 326° |
| 2026-05-04 20:44 | 46.00326 | 4.98441 | 14470 ft | 363 kts | 326° |
| 2026-05-04 20:45 | 46.02491 | 4.96543 | 15163 ft | 367 kts | 326° |